Time;durP1;ratioP1;P1;durP2;ratioP2;P2;SDS_P1;SDS_P2;PMS_P1;PMS_P2;Temp;Humidity;BMP_temperature;BMP_pressure;BME280_temperature;BME280_humidity;BME280_pressure;Samples;Min_cycle;Max_cycle;Signal;HPM_P1;HPM_P2
2021/09/19 00:01:16;;;;;;;7.82;6.88;;;;;;;11.94;71.74;96301.69;5054330;28;20104;-63
2021/09/19 00:03:42;;;;;;;9.95;6.82;;;;;;;11.95;71.97;96298.16;5054205;28;20087;-66
2021/09/19 00:06:08;;;;;;;7.57;6.70;;;;;;;11.96;72.08;96292.84;5054343;28;20023;-66
2021/09/19 00:08:34;;;;;;;8.68;7.18;;;;;;;11.97;72.12;96296.31;5054331;28;20086;-64
2021/09/19 00:10:59;;;;;;;11.77;7.13;;;;;;;11.96;72.05;96286.75;5054320;28;20029;-67
2021/09/19 00:13:26;;;;;;;11.18;7.75;;;;;;;12.01;71.87;96288.22;5054043;28;20444;-64
2021/09/19 00:15:52;;;;;;;9.52;7.60;;;;;;;12.02;72.07;96299.56;5054213;28;20028;-63
2021/09/19 00:18:18;;;;;;;7.70;6.65;;;;;;;12.06;72.13;96297.63;5054203;28;20171;-65
2021/09/19 00:20:44;;;;;;;8.40;7.03;;;;;;;12.05;72.25;96295.94;5054098;28;20121;-64
2021/09/19 00:23:11;;;;;;;9.60;6.95;;;;;;;11.97;72.48;96293.69;5053933;28;20028;-66
2021/09/19 00:25:37;;;;;;;10.32;7.65;;;;;;;11.99;72.62;96295.34;5054027;28;20025;-64
2021/09/19 00:28:04;;;;;;;9.18;7.85;;;;;;;12.01;73.21;96290.84;5054014;28;20021;-65
2021/09/19 00:30:30;;;;;;;10.43;7.85;;;;;;;11.99;73.53;96282.22;5053935;28;20017;-64
2021/09/19 00:32:56;;;;;;;9.80;8.13;;;;;;;11.98;73.84;96288.38;5053876;28;20529;-66
2021/09/19 00:35:22;;;;;;;13.30;8.05;;;;;;;12.08;74.21;96290.59;5053690;28;20111;-64
2021/09/19 00:37:47;;;;;;;12.25;8.45;;;;;;;12.12;74.17;96287.75;5053816;28;20029;-66
2021/09/19 00:40:13;;;;;;;9.32;7.50;;;;;;;12.18;74.46;96278.72;5053845;28;20025;-66
2021/09/19 00:42:39;;;;;;;8.35;7.07;;;;;;;12.14;73.99;96277.19;5053624;28;20032;-63
2021/09/19 00:45:09;;;;;;;10.02;7.93;;;;;;;12.08;74.51;96280.09;5053638;28;20032;-67
2021/09/19 00:47:35;;;;;;;14.90;8.98;;;;;;;12.16;75.43;96270.09;5053488;28;20051;-68
2021/09/19 00:50:01;;;;;;;8.60;7.30;;;;;;;12.24;75.17;96273.19;5053555;28;20092;-65
2021/09/19 00:52:28;;;;;;;9.00;7.18;;;;;;;12.28;74.30;96273.06;5053565;28;20497;-65
2021/09/19 00:54:59;;;;;;;8.20;7.38;;;;;;;12.30;73.97;96285.16;5053473;28;20391;-65
2021/09/19 00:57:26;;;;;;;9.98;7.93;;;;;;;12.34;74.63;96294.56;5053409;28;20032;-66
2021/09/19 00:59:52;;;;;;;9.38;7.25;;;;;;;12.37;73.97;96285.69;5053275;28;20060;-66
2021/09/19 01:02:18;;;;;;;10.00;8.02;;;;;;;12.31;74.33;96283.38;5053197;28;20060;-66
2021/09/19 01:04:44;;;;;;;12.98;7.47;;;;;;;12.32;74.51;96291.19;5053104;28;20092;-65
2021/09/19 01:07:10;;;;;;;10.15;8.35;;;;;;;12.32;74.75;96301.66;5053279;28;20028;-64
2021/09/19 01:09:37;;;;;;;11.85;8.50;;;;;;;12.33;74.71;96303.38;5053249;28;20459;-67
2021/09/19 01:12:02;;;;;;;11.77;8.40;;;;;;;12.35;75.08;96300.66;5053069;28;20410;-65
2021/09/19 01:14:30;;;;;;;9.77;7.75;;;;;;;12.44;75.64;96310.72;5053023;28;20047;-66
2021/09/19 01:16:59;;;;;;;14.70;8.75;;;;;;;12.44;75.20;96294.13;5053226;28;20021;-67
2021/09/19 01:19:26;;;;;;;11.90;8.52;;;;;;;12.45;75.27;96288.78;5053148;28;20384;-64
2021/09/19 01:21:52;;;;;;;14.82;8.98;;;;;;;12.57;75.59;96296.97;5052922;28;20071;-64
2021/09/19 01:24:18;;;;;;;11.75;9.23;;;;;;;12.63;76.26;96294.03;5053038;28;20028;-67
2021/09/19 01:26:44;;;;;;;9.65;8.18;;;;;;;12.59;76.08;96282.88;5053042;28;20033;-65
2021/09/19 01:29:10;;;;;;;10.95;9.02;;;;;;;12.69;75.97;96288.50;5053053;28;20047;-66
2021/09/19 01:31:36;;;;;;;13.35;8.80;;;;;;;12.75;75.01;96288.19;5053011;28;20017;-63
2021/09/19 01:34:02;;;;;;;12.30;8.25;;;;;;;12.79;75.74;96280.16;5052803;28;20129;-64
2021/09/19 01:36:33;;;;;;;12.27;9.07;;;;;;;12.81;75.98;96283.53;5052854;28;20048;-65
2021/09/19 01:39:00;;;;;;;11.15;8.55;;;;;;;12.87;75.65;96278.84;5052846;28;20057;-65
2021/09/19 01:41:25;;;;;;;14.55;9.02;;;;;;;12.92;76.08;96285.63;5052944;28;20071;-65
2021/09/19 01:43:54;;;;;;;14.70;8.90;;;;;;;12.96;76.09;96285.38;5052667;28;20029;-63
2021/09/19 01:46:19;;;;;;;11.82;9.00;;;;;;;12.99;76.05;96290.47;5052732;28;20078;-67
2021/09/19 01:48:45;;;;;;;10.68;8.48;;;;;;;13.01;74.88;96287.78;5052719;28;20103;-66
2021/09/19 01:51:11;;;;;;;10.07;8.85;;;;;;;13.11;75.48;96298.63;5052813;28;20112;-67
2021/09/19 01:53:38;;;;;;;10.85;8.85;;;;;;;13.17;75.75;96295.69;5052935;28;20025;-67
2021/09/19 01:56:05;;;;;;;10.43;8.50;;;;;;;13.25;75.58;96298.75;5052683;28;20037;-64
2021/09/19 01:58:31;;;;;;;11.75;8.15;;;;;;;13.35;75.48;96290.38;5052636;28;20379;-68
2021/09/19 02:00:59;;;;;;;8.65;7.75;;;;;;;13.37;75.29;96301.69;5052607;28;20021;-65
2021/09/19 02:03:25;;;;;;;11.05;9.13;;;;;;;13.38;75.22;96300.75;5052696;28;20021;-66
2021/09/19 02:05:50;;;;;;;13.10;8.55;;;;;;;13.43;74.90;96301.34;5052715;28;20020;-64
2021/09/19 02:08:16;;;;;;;11.75;8.57;;;;;;;13.48;75.53;96303.72;5052685;28;20103;-67
2021/09/19 02:10:42;;;;;;;8.82;7.70;;;;;;;13.52;75.43;96310.56;5052714;28;20013;-64
2021/09/19 02:13:07;;;;;;;10.05;7.40;;;;;;;13.57;74.38;96305.88;5052341;28;20483;-65
2021/09/19 02:15:33;;;;;;;9.63;7.38;;;;;;;13.56;74.74;96305.97;5053549;28;20099;-64
2021/09/19 02:17:59;;;;;;;11.35;8.30;;;;;;;13.54;75.07;96306.03;5056467;28;20046;-65
2021/09/19 02:20:24;;;;;;;8.15;7.35;;;;;;;13.54;74.87;96303.41;5056354;28;20063;-67
2021/09/19 02:22:50;;;;;;;11.20;7.85;;;;;;;13.59;73.62;96311.06;5056174;28;20037;-63
2021/09/19 02:25:16;;;;;;;9.77;7.88;;;;;;;13.57;74.66;96305.88;5056196;28;20103;-66
2021/09/19 02:27:42;;;;;;;15.50;7.90;;;;;;;13.66;76.04;96301.91;5056445;28;20033;-64
2021/09/19 02:30:10;;;;;;;10.73;8.10;;;;;;;13.71;75.58;96299.03;5056150;28;20039;-65
2021/09/19 02:32:36;;;;;;;10.85;7.25;;;;;;;13.76;75.00;96297.84;5056094;28;20028;-66
2021/09/19 02:35:02;;;;;;;8.63;7.00;;;;;;;13.83;74.59;96297.50;5056093;28;20059;-68
2021/09/19 02:37:28;;;;;;;7.55;6.53;;;;;;;13.85;73.69;96285.16;5055972;28;20021;-64
2021/09/19 02:39:54;;;;;;;9.73;7.35;;;;;;;13.78;73.64;96282.00;5056008;28;20098;-65
2021/09/19 02:42:19;;;;;;;10.13;7.10;;;;;;;13.80;73.44;96281.91;5055817;28;20037;-64
2021/09/19 02:44:45;;;;;;;11.10;7.78;;;;;;;13.82;73.46;96272.16;5055974;28;20021;-67
2021/09/19 02:47:11;;;;;;;8.38;7.47;;;;;;;13.88;73.94;96274.47;5055708;28;20028;-67
2021/09/19 02:49:36;;;;;;;11.25;7.20;;;;;;;13.93;74.24;96274.22;5055846;28;20017;-67
2021/09/19 02:52:03;;;;;;;9.18;6.55;;;;;;;13.98;74.84;96273.00;5055789;28;20029;-64
2021/09/19 02:54:28;;;;;;;14.10;7.57;;;;;;;13.95;73.47;96272.31;5055856;28;20353;-64
2021/09/19 02:56:54;;;;;;;9.25;6.82;;;;;;;13.95;74.25;96275.81;5055661;28;20030;-63
2021/09/19 02:59:20;;;;;;;17.42;7.40;;;;;;;13.97;74.25;96273.91;5054319;28;20033;-63
2021/09/19 03:01:45;;;;;;;8.05;7.13;;;;;;;13.99;73.52;96286.97;5055517;28;20021;-67
2021/09/19 03:04:11;;;;;;;8.65;6.85;;;;;;;14.01;74.08;96291.25;5055546;28;20471;-64
2021/09/19 03:06:37;;;;;;;8.70;7.57;;;;;;;14.02;74.16;96284.19;5055415;28;20029;-64
2021/09/19 03:09:03;;;;;;;7.55;6.47;;;;;;;13.98;73.35;96285.28;5055328;28;20021;-64
2021/09/19 03:11:29;;;;;;;7.32;6.40;;;;;;;13.98;72.94;96285.28;5055436;28;20024;-66
2021/09/19 03:13:54;;;;;;;7.72;6.68;;;;;;;13.98;72.70;96277.41;5055123;28;20042;-67
2021/09/19 03:16:21;;;;;;;9.75;6.50;;;;;;;14.00;73.03;96279.00;5055339;28;20104;-63
2021/09/19 03:18:46;;;;;;;5.60;4.97;;;;;;;13.99;71.26;96276.47;5055320;28;20082;-65
2021/09/19 03:21:12;;;;;;;10.75;6.50;;;;;;;13.96;71.12;96284.53;5055368;28;20036;-65
2021/09/19 03:23:37;;;;;;;8.77;5.80;;;;;;;13.99;72.69;96281.72;5055067;28;20440;-66
2021/09/19 03:26:03;;;;;;;7.05;6.18;;;;;;;14.02;73.18;96281.56;5055068;28;20375;-67
2021/09/19 03:28:29;;;;;;;9.90;6.80;;;;;;;14.02;73.64;96290.31;5054128;28;20020;-67
2021/09/19 03:30:55;;;;;;;10.10;6.22;;;;;;;14.00;73.68;96286.06;5055121;28;20017;-67
2021/09/19 03:33:20;;;;;;;8.15;6.10;;;;;;;13.96;73.39;96287.16;5055102;28;20378;-65
2021/09/19 03:35:46;;;;;;;6.95;6.00;;;;;;;13.98;73.37;96285.28;5054855;28;20017;-64
2021/09/19 03:38:11;;;;;;;6.03;5.43;;;;;;;13.99;73.56;96292.25;5054868;28;20032;-65
2021/09/19 03:40:37;;;;;;;6.15;5.25;;;;;;;13.96;73.29;96298.53;5054931;28;20025;-66
2021/09/19 03:43:03;;;;;;;8.07;5.75;;;;;;;13.94;73.33;96317.97;5054775;28;20036;-61
2021/09/19 03:45:31;;;;;;;8.13;6.07;;;;;;;13.94;73.28;96310.06;5054750;28;20383;-66
2021/09/19 03:48:08;;;;;;;6.63;5.57;;;;;;;13.90;73.43;96298.88;5054628;28;20112;-64
2021/09/19 03:50:34;;;;;;;6.45;4.97;;;;;;;13.85;72.76;96303.53;5054716;28;20029;-67
2021/09/19 03:53:00;;;;;;;5.22;4.72;;;;;;;13.75;71.90;96304.03;5054619;28;20087;-64
2021/09/19 03:55:27;;;;;;;15.65;5.45;;;;;;;13.72;71.86;96301.56;5054608;28;20021;-64
2021/09/19 03:57:52;;;;;;;7.53;5.20;;;;;;;13.68;72.13;96302.69;5054566;28;20032;-63
2021/09/19 04:00:19;;;;;;;6.38;4.95;;;;;;;13.70;72.17;96303.44;5054492;28;20378;-67
2021/09/19 04:02:45;;;;;;;8.45;4.93;;;;;;;13.64;72.05;96301.16;5054358;28;20494;-62
2021/09/19 04:05:11;;;;;;;6.43;4.90;;;;;;;13.61;72.18;96315.28;5054481;28;20051;-67
2021/09/19 04:07:37;;;;;;;8.38;4.80;;;;;;;13.57;72.02;96313.78;5054339;28;20021;-66
2021/09/19 04:10:05;;;;;;;6.65;5.20;;;;;;;13.51;71.53;96309.69;5054299;28;20383;-63
2021/09/19 04:12:31;;;;;;;6.25;5.10;;;;;;;13.43;71.70;96321.50;5053967;28;20021;-67
2021/09/19 04:14:57;;;;;;;5.43;4.53;;;;;;;13.37;70.93;96317.44;5054181;28;20055;-66
2021/09/19 04:17:23;;;;;;;8.10;4.68;;;;;;;13.18;69.61;96309.69;5054245;28;20021;-67
2021/09/19 04:19:49;;;;;;;9.52;4.35;;;;;;;13.14;71.04;96314.22;5054043;28;20032;-66
2021/09/19 04:22:15;;;;;;;5.25;4.75;;;;;;;13.10;71.20;96310.91;5053983;28;20163;-66
2021/09/19 04:24:40;;;;;;;6.97;4.75;;;;;;;13.09;71.41;96313.59;5054014;28;20479;-65
2021/09/19 04:27:06;;;;;;;5.47;4.82;;;;;;;13.01;71.15;96314.84;5053999;28;20029;-63
2021/09/19 04:29:34;;;;;;;6.13;5.28;;;;;;;13.02;71.36;96318.34;5054017;28;20033;-66
2021/09/19 04:32:01;;;;;;;6.60;4.85;;;;;;;13.03;70.95;96325.28;5053896;28;20138;-67
2021/09/19 04:34:26;;;;;;;6.10;4.80;;;;;;;13.00;71.55;96322.81;5053841;28;20027;-66
2021/09/19 04:36:52;;;;;;;5.32;4.78;;;;;;;13.04;71.41;96327.00;5053674;28;20025;-65
2021/09/19 04:39:18;;;;;;;6.95;4.55;;;;;;;13.03;71.54;96338.41;5053418;28;20100;-66
2021/09/19 04:41:43;;;;;;;6.15;5.00;;;;;;;13.04;71.64;96332.25;5053550;28;20025;-67
2021/09/19 04:44:09;;;;;;;7.07;4.90;;;;;;;13.22;70.95;96334.84;5053667;28;20025;-66
2021/09/19 04:46:34;;;;;;;4.70;4.30;;;;;;;13.77;69.40;96331.09;5053560;28;20048;-65
2021/09/19 04:49:00;;;;;;;6.72;3.75;;;;;;;14.67;66.60;96324.41;5053528;28;20021;-62
2021/09/19 04:51:26;;;;;;;4.85;3.60;;;;;;;15.66;63.57;96328.22;5053640;28;20095;-65
2021/09/19 04:53:51;;;;;;;4.50;3.10;;;;;;;16.62;60.54;96322.25;5053449;28;20107;-62
2021/09/19 04:56:17;;;;;;;7.72;3.65;;;;;;;17.52;57.46;96328.63;5053509;28;20428;-65
2021/09/19 04:58:43;;;;;;;3.90;3.20;;;;;;;18.39;55.35;96319.84;5053339;28;20067;-65
2021/09/19 05:01:08;;;;;;;3.60;2.80;;;;;;;19.21;52.90;96320.06;5053377;28;20411;-66
2021/09/19 05:03:34;;;;;;;4.07;2.60;;;;;;;20.01;51.08;96312.13;5053180;28;20040;-66
2021/09/19 05:05:59;;;;;;;2.95;2.65;;;;;;;20.68;49.18;96309.38;5053494;28;20047;-68
2021/09/19 05:08:25;;;;;;;2.70;2.47;;;;;;;21.41;48.40;96309.63;5053290;28;20098;-65
2021/09/19 05:10:52;;;;;;;3.42;2.22;;;;;;;21.90;47.45;96311.66;5053227;28;20068;-67
2021/09/19 05:13:18;;;;;;;3.22;2.90;;;;;;;22.69;46.95;96317.16;5053113;28;20039;-63
2021/09/19 05:15:44;;;;;;;5.32;2.60;;;;;;;23.40;45.22;96312.50;5053046;28;20013;-63
2021/09/19 05:18:10;;;;;;;2.33;2.13;;;;;;;24.18;43.66;96304.31;5053080;28;20025;-67
2021/09/19 05:20:36;;;;;;;2.80;2.10;;;;;;;24.13;43.44;96296.75;5053162;28;20025;-69
2021/09/19 05:23:01;;;;;;;2.60;2.40;;;;;;;23.76;43.13;96305.63;5053065;28;20485;-65
2021/09/19 05:25:27;;;;;;;3.03;2.53;;;;;;;23.88;43.66;96300.94;5052979;28;20025;-68
2021/09/19 05:27:53;;;;;;;4.03;2.70;;;;;;;24.43;42.01;96305.41;5052947;28;20100;-65
2021/09/19 05:30:19;;;;;;;3.30;2.88;;;;;;;25.08;39.26;96308.00;5053044;28;20025;-64
2021/09/19 05:32:45;;;;;;;3.25;2.42;;;;;;;26.07;39.48;96312.28;5053067;28;20025;-65
2021/09/19 05:35:11;;;;;;;3.90;2.30;;;;;;;27.08;38.16;96316.84;5052873;28;20020;-64
2021/09/19 05:37:37;;;;;;;5.35;2.50;;;;;;;27.81;37.03;96316.09;5053013;28;20040;-62
2021/09/19 05:40:05;;;;;;;2.60;2.40;;;;;;;28.30;35.40;96325.81;5052922;28;20025;-69
2021/09/19 05:42:30;;;;;;;4.53;2.88;;;;;;;28.25;34.48;96322.78;5052868;28;20036;-65
2021/09/19 05:44:56;;;;;;;6.30;2.75;;;;;;;27.99;34.99;96323.91;5052920;28;20021;-66
2021/09/19 05:47:21;;;;;;;5.18;2.65;;;;;;;28.27;35.92;96336.88;5052813;28;20017;-69
2021/09/19 05:49:47;;;;;;;4.15;2.22;;;;;;;28.46;35.00;96332.94;5052834;28;20070;-65
2021/09/19 05:52:12;;;;;;;2.67;2.47;;;;;;;29.12;35.62;96328.13;5056658;28;20037;-65
2021/09/19 05:54:38;;;;;;;3.55;2.20;;;;;;;29.63;33.96;96324.00;5056895;28;20031;-64
2021/09/19 05:57:04;;;;;;;5.60;2.78;;;;;;;29.73;32.54;96321.84;5056972;28;20029;-65
2021/09/19 05:59:30;;;;;;;3.10;2.80;;;;;;;29.21;33.86;96320.81;5056761;28;20471;-67
2021/09/19 06:01:55;;;;;;;4.28;2.42;;;;;;;29.18;35.01;96318.50;5056582;28;20101;-64
2021/09/19 06:04:22;;;;;;;3.55;2.70;;;;;;;29.55;32.70;96322.22;5056843;28;20467;-65
2021/09/19 06:06:48;;;;;;;2.70;2.50;;;;;;;29.71;32.27;96329.28;5056741;28;20052;-64
2021/09/19 06:09:14;;;;;;;4.93;2.65;;;;;;;30.17;31.33;96326.59;5056681;28;20485;-65
2021/09/19 06:11:41;;;;;;;3.75;2.80;;;;;;;30.79;31.16;96337.91;5056488;28;20028;-65
2021/09/19 06:14:07;;;;;;;3.30;3.00;;;;;;;30.79;30.63;96342.47;5056305;28;20041;-64
2021/09/19 06:16:32;;;;;;;3.35;2.95;;;;;;;30.64;30.68;96341.47;5056512;28;20378;-65
2021/09/19 06:18:58;;;;;;;3.88;2.97;;;;;;;31.01;30.44;96341.47;5056332;28;20560;-64
2021/09/19 06:21:24;;;;;;;3.22;2.92;;;;;;;31.04;30.41;96333.97;5056311;28;20021;-68
2021/09/19 06:23:49;;;;;;;3.25;2.25;;;;;;;30.52;31.00;96329.50;5056165;28;20100;-63
2021/09/19 06:26:15;;;;;;;4.40;2.90;;;;;;;29.80;32.52;96334.59;5056285;28;20027;-67
2021/09/19 06:28:40;;;;;;;3.03;2.72;;;;;;;29.09;33.30;96323.97;5056339;28;20067;-64
2021/09/19 06:31:06;;;;;;;3.33;3.03;;;;;;;28.42;34.27;96318.19;5056223;28;20029;-66
2021/09/19 06:33:32;;;;;;;5.78;2.60;;;;;;;27.69;36.93;96319.13;5056260;28;20071;-64
2021/09/19 06:35:58;;;;;;;3.42;3.00;;;;;;;27.00;36.98;96331.13;5056000;28;20029;-66
2021/09/19 06:38:23;;;;;;;5.03;3.08;;;;;;;26.37;37.83;96332.31;5055925;28;20027;-66
2021/09/19 06:40:49;;;;;;;4.18;3.03;;;;;;;26.05;38.95;96327.66;5055936;28;20025;-63
2021/09/19 06:43:15;;;;;;;3.45;2.72;;;;;;;25.87;38.87;96336.63;5055889;28;20204;-66
2021/09/19 06:45:40;;;;;;;4.55;3.00;;;;;;;26.19;36.99;96342.28;5056011;28;20056;-66
2021/09/19 06:48:06;;;;;;;4.13;2.80;;;;;;;26.85;35.69;96345.13;5055875;28;20032;-67
2021/09/19 06:50:32;;;;;;;3.80;2.55;;;;;;;27.63;35.37;96349.31;5055835;28;20037;-63
2021/09/19 06:52:57;;;;;;;3.45;2.90;;;;;;;27.48;33.35;96333.91;5055718;28;20083;-66
2021/09/19 06:55:23;;;;;;;2.97;2.65;;;;;;;27.46;34.59;96335.94;5055819;28;20032;-61
2021/09/19 06:57:58;;;;;;;4.93;2.50;;;;;;;27.60;32.67;96334.38;5055722;28;20033;-65
2021/09/19 07:00:25;;;;;;;2.80;2.60;;;;;;;28.11;33.04;96338.63;5055615;28;20017;-65
2021/09/19 07:02:51;;;;;;;5.13;2.75;;;;;;;28.37;34.17;96340.22;5055223;28;20475;-67
2021/09/19 07:05:17;;;;;;;2.90;2.70;;;;;;;28.75;33.17;96338.66;5055456;28;20032;-68
2021/09/19 07:07:43;;;;;;;3.08;2.25;;;;;;;29.09;30.52;96341.97;5055607;28;20025;-63
2021/09/19 07:10:10;;;;;;;3.70;2.88;;;;;;;29.05;31.92;96340.66;5055646;28;20055;-64
2021/09/19 07:12:35;;;;;;;3.20;2.47;;;;;;;29.09;29.88;96336.56;5055215;28;20086;-64
2021/09/19 07:15:01;;;;;;;2.70;2.50;;;;;;;28.89;29.72;96331.66;5055374;28;20025;-64
2021/09/19 07:17:27;;;;;;;4.70;2.90;;;;;;;29.09;32.24;96344.66;5055336;28;20036;-64
2021/09/19 07:19:53;;;;;;;2.90;2.60;;;;;;;29.03;30.90;96338.13;5055180;28;20079;-64
2021/09/19 07:22:19;;;;;;;3.03;2.78;;;;;;;29.09;31.38;96344.66;5055118;28;20029;-65
2021/09/19 07:24:44;;;;;;;3.05;2.50;;;;;;;29.41;30.83;96352.63;5055197;28;20078;-64
2021/09/19 07:27:10;;;;;;;3.80;3.17;;;;;;;29.51;29.96;96350.50;5055180;28;20025;-64
2021/09/19 07:29:36;;;;;;;2.88;2.67;;;;;;;29.27;31.17;96349.72;5055122;28;20479;-64
2021/09/19 07:32:06;;;;;;;4.60;3.00;;;;;;;28.89;30.89;96358.56;5055087;28;20056;-67
2021/09/19 07:34:33;;;;;;;6.07;3.22;;;;;;;28.29;31.87;96359.06;5055080;28;20056;-62
2021/09/19 07:37:00;;;;;;;4.43;3.95;;;;;;;28.05;32.79;96355.44;5054961;28;20399;-65
2021/09/19 07:39:26;;;;;;;5.05;3.40;;;;;;;27.92;33.27;96368.59;5054892;28;20025;-63
2021/09/19 07:41:53;;;;;;;6.75;4.25;;;;;;;27.69;32.88;96364.78;5036944;28;20032;-65
2021/09/19 07:44:20;;;;;;;6.38;4.15;;;;;;;27.49;34.21;96353.56;5054854;28;20486;-63
2021/09/19 07:46:49;;;;;;;4.82;3.67;;;;;;;27.18;34.26;96365.00;5054860;28;20475;-65
2021/09/19 07:49:18;;;;;;;6.13;3.40;;;;;;;26.85;33.42;96358.56;5054849;28;20025;-64
2021/09/19 07:51:44;;;;;;;6.60;3.25;;;;;;;26.74;34.49;96358.88;5054571;28;20482;-63
2021/09/19 07:54:10;;;;;;;3.22;2.92;;;;;;;26.85;34.45;96350.50;5054571;28;20074;-67
2021/09/19 07:56:36;;;;;;;4.22;3.30;;;;;;;27.05;34.44;96342.16;5054614;28;20021;-64
2021/09/19 07:59:02;;;;;;;3.95;3.42;;;;;;;27.23;33.45;96331.25;5054530;28;20028;-64
2021/09/19 08:01:28;;;;;;;4.07;3.08;;;;;;;27.50;32.20;96331.06;5054459;28;20104;-63
2021/09/19 08:03:58;;;;;;;7.40;3.10;;;;;;;27.70;31.54;96339.63;5054339;28;20108;-66
2021/09/19 08:06:25;;;;;;;4.78;3.13;;;;;;;28.06;31.81;96342.84;5054399;28;20025;-66
2021/09/19 08:08:53;;;;;;;3.08;2.70;;;;;;;28.15;30.01;96335.59;5053123;28;20174;-66
2021/09/19 08:11:19;;;;;;;6.32;3.38;;;;;;;28.22;33.48;96345.47;5054402;28;20036;-63
2021/09/19 08:13:47;;;;;;;3.35;2.38;;;;;;;28.46;31.59;96345.53;5053402;28;20079;-63
2021/09/19 08:16:15;;;;;;;3.08;2.78;;;;;;;28.28;31.32;96343.94;5054083;28;20032;-63
2021/09/19 08:18:41;;;;;;;5.55;2.90;;;;;;;28.09;31.79;96337.97;5054138;28;20155;-68
2021/09/19 08:21:06;;;;;;;4.50;2.70;;;;;;;28.33;33.00;96338.91;5054130;28;20490;-68
2021/09/19 08:23:33;;;;;;;4.32;2.63;;;;;;;28.58;31.46;96340.59;5054028;28;20123;-66
2021/09/19 08:25:59;;;;;;;7.05;3.08;;;;;;;28.68;30.24;96330.44;5053952;28;20025;-65
2021/09/19 08:28:25;;;;;;;7.53;3.05;;;;;;;28.50;30.43;96330.72;5053889;28;20017;-65
2021/09/19 08:30:50;;;;;;;3.80;2.67;;;;;;;28.40;30.10;96327.41;5053955;28;20021;-67
2021/09/19 08:33:16;;;;;;;4.10;2.85;;;;;;;28.28;30.46;96322.44;5053850;28;20028;-60
2021/09/19 08:35:42;;;;;;;6.00;2.78;;;;;;;28.22;32.56;96326.66;5053848;28;20056;-65
2021/09/19 08:38:08;;;;;;;3.10;2.67;;;;;;;28.11;31.60;96335.94;5053761;28;20079;-65
2021/09/19 08:40:34;;;;;;;3.75;3.03;;;;;;;27.91;33.94;96332.00;5053633;28;20103;-63
2021/09/19 08:43:00;;;;;;;3.03;2.83;;;;;;;27.72;34.12;96326.03;5053503;28;20028;-62
2021/09/19 08:45:26;;;;;;;3.20;2.70;;;;;;;27.84;33.24;96338.06;5053657;28;20032;-65
2021/09/19 08:47:52;;;;;;;4.07;2.38;;;;;;;27.91;32.91;96332.00;5053654;28;20025;-66
2021/09/19 08:50:20;;;;;;;2.92;2.65;;;;;;;28.10;32.12;96336.13;5053727;28;20037;-64
2021/09/19 08:52:47;;;;;;;3.60;2.80;;;;;;;28.22;34.48;96333.88;5053463;28;20064;-64
2021/09/19 08:55:13;;;;;;;3.70;2.92;;;;;;;28.30;32.54;96333.03;5053452;28;20025;-64
2021/09/19 08:57:39;;;;;;;3.78;2.65;;;;;;;28.51;29.43;96325.16;5053624;28;20052;-67
2021/09/19 09:00:11;;;;;;;2.72;2.20;;;;;;;28.67;31.26;96317.19;5053477;28;20027;-66
2021/09/19 09:02:47;;;;;;;3.05;2.22;;;;;;;28.61;32.05;96327.66;5053284;28;20037;-63
2021/09/19 09:05:35;;;;;;;3.00;2.55;;;;;;;28.85;30.22;96323.13;5053423;28;20032;-62
2021/09/19 09:08:00;;;;;;;2.42;2.22;;;;;;;28.47;30.66;96323.03;5053269;28;20384;-62
2021/09/19 09:10:46;;;;;;;4.50;2.55;;;;;;;28.43;29.34;96325.22;5053322;28;20031;-64
2021/09/19 09:13:16;;;;;;;2.60;2.40;;;;;;;28.32;30.06;96322.94;5053122;28;20041;-64
2021/09/19 09:15:48;;;;;;;6.50;3.10;;;;;;;28.41;32.01;96316.50;5053276;28;20029;-64
2021/09/19 09:18:28;;;;;;;3.58;2.60;;;;;;;28.55;31.06;96322.13;5053274;28;20032;-62
2021/09/19 09:20:55;;;;;;;4.93;2.63;;;;;;;28.71;31.58;96311.25;5053164;28;20522;-64
2021/09/19 09:23:52;;;;;;;5.80;2.47;;;;;;;28.62;31.42;96309.63;5050669;28;20486;-64
2021/09/19 09:26:28;;;;;;;3.38;2.30;;;;;;;28.47;31.77;96318.47;5042409;28;20053;-62
2021/09/19 09:29:06;;;;;;;2.80;2.60;;;;;;;28.10;32.40;96311.91;5039595;28;20172;-63
2021/09/19 09:31:43;;;;;;;2.95;2.63;;;;;;;28.29;32.53;96315.22;5046136;28;20036;-66
2021/09/19 09:34:12;;;;;;;4.03;2.40;;;;;;;28.18;31.65;96311.91;5038974;28;20033;-64
2021/09/19 09:36:47;;;;;;;3.97;2.47;;;;;;;28.04;32.12;96302.72;5040063;28;20029;-69
2021/09/19 09:39:32;;;;;;;3.38;2.35;;;;;;;28.00;31.27;96304.91;5038718;28;20058;-61
2021/09/19 09:42:19;;;;;;;5.63;2.70;;;;;;;27.74;32.62;96303.34;5043637;28;20029;-64
2021/09/19 09:44:52;;;;;;;5.55;3.33;;;;;;;27.69;34.18;96299.50;5052861;28;20033;-64
2021/09/19 09:47:28;;;;;;;4.70;2.83;;;;;;;27.48;33.35;96295.50;5052854;28;20032;-65
2021/09/19 09:50:00;;;;;;;2.97;2.67;;;;;;;27.51;34.58;96289.75;5035474;28;20179;-62
2021/09/19 09:52:26;;;;;;;3.00;2.70;;;;;;;27.69;32.39;96292.25;5032967;28;20356;-62
2021/09/19 09:54:58;;;;;;;3.90;3.42;;;;;;;27.69;33.33;96283.38;5032791;28;20138;-62
2021/09/19 09:57:36;;;;;;;5.10;2.83;;;;;;;27.92;31.54;96280.75;5032852;28;20494;-57
2021/09/19 10:00:05;;;;;;;4.78;2.92;;;;;;;27.87;32.99;96277.75;5045742;28;20033;-52
2021/09/19 10:02:32;;;;;;;4.00;3.10;;;;;;;27.82;33.45;96282.81;5052697;28;20163;-58
2021/09/19 10:04:58;;;;;;;3.47;3.17;;;;;;;27.46;34.37;96282.25;5052720;28;20490;-61
2021/09/19 10:07:25;;;;;;;5.45;3.42;;;;;;;27.26;33.57;96276.41;5052535;28;20146;-58
2021/09/19 10:09:53;;;;;;;10.02;3.42;;;;;;;27.19;35.55;96281.63;5039981;28;20458;-62
2021/09/19 10:12:20;;;;;;;55.03;6.72;;;;;;;27.13;36.11;96276.94;5032725;28;20026;-60
2021/09/19 10:14:54;;;;;;;16.40;3.53;;;;;;;27.18;34.11;96274.56;5032411;28;20369;-59
2021/09/19 10:17:23;;;;;;;36.30;5.78;;;;;;;27.11;33.42;96269.03;5032612;28;20031;-58
2021/09/19 10:19:51;;;;;;;3.50;2.80;;;;;;;27.12;35.93;96261.84;5044087;28;20032;-56
2021/09/19 10:22:25;;;;;;;165.32;13.27;;;;;;;27.20;34.18;96253.75;5052020;28;20021;-58
2021/09/19 10:24:51;;;;;;;30.48;6.13;;;;;;;27.47;33.55;96249.00;5052545;28;20032;-55
2021/09/19 10:27:24;;;;;;;25.98;3.88;;;;;;;27.40;35.19;96261.44;5052444;28;20025;-58
2021/09/19 10:30:07;;;;;;;4.55;3.00;;;;;;;27.29;35.06;96264.47;5051534;28;20043;-58
2021/09/19 10:32:38;;;;;;;19.00;5.00;;;;;;;27.18;33.49;96258.47;5039346;28;20439;-59
2021/09/19 10:35:17;;;;;;;5.45;3.00;;;;;;;27.20;34.83;96253.75;5032543;28;20034;-54
2021/09/19 10:37:52;;;;;;;30.60;5.68;;;;;;;27.36;34.63;96246.69;5035381;28;20029;-58
2021/09/19 10:40:38;;;;;;;6.03;3.33;;;;;;;27.44;33.41;96245.81;5047230;28;20036;-57
2021/09/19 10:43:15;;;;;;;191.20;19.95;;;;;;;27.46;34.70;96241.13;5054110;28;20562;-58
2021/09/19 10:45:43;;;;;;;23.90;4.38;;;;;;;27.43;35.41;96249.53;5054671;28;20376;-59
2021/09/19 10:48:27;;;;;;;7.80;3.00;;;;;;;27.39;34.70;96240.97;5055907;28;20048;-60
2021/09/19 10:51:08;;;;;;;3.40;2.63;;;;;;;27.23;33.27;96231.97;5042913;28;20165;-59
2021/09/19 10:53:49;;;;;;;22.80;3.97;;;;;;;27.32;33.99;96230.09;5035976;28;20034;-52
2021/09/19 10:56:15;;;;;;;4.63;3.10;;;;;;;27.31;34.30;96231.09;5040111;28;20479;-60
2021/09/19 10:58:46;;;;;;;15.13;3.80;;;;;;;27.33;33.75;96231.75;5055196;28;20017;-59
2021/09/19 11:01:17;;;;;;;7.47;3.40;;;;;;;27.48;33.86;96229.19;5055631;28;20033;-59
2021/09/19 11:03:48;;;;;;;69.32;5.70;;;;;;;27.61;35.44;96230.50;5035631;28;20507;-55
2021/09/19 11:06:22;;;;;;;6.00;3.30;;;;;;;27.62;35.78;96224.09;5035632;28;20498;-57
2021/09/19 11:08:48;;;;;;;10.63;3.20;;;;;;;27.56;34.96;96228.34;5035496;28;20071;-64
2021/09/19 11:11:25;;;;;;;4.43;3.38;;;;;;;27.47;35.08;96227.53;5035552;28;20068;-63
2021/09/19 11:13:56;;;;;;;10.15;2.97;;;;;;;27.44;35.63;96219.81;5038517;28;20120;-59
2021/09/19 11:16:22;;;;;;;3.88;3.00;;;;;;;27.43;36.19;96219.97;5044069;28;20053;-61
2021/09/19 11:18:57;;;;;;;3.33;2.90;;;;;;;27.35;37.18;96218.16;5035309;28;20026;-59
2021/09/19 11:21:22;;;;;;;4.85;2.80;;;;;;;27.36;37.44;96225.22;5035358;28;20029;-57
2021/09/19 11:23:52;;;;;;;5.90;2.78;;;;;;;27.22;37.05;96219.56;5039117;28;20032;-60
2021/09/19 11:26:22;;;;;;;8.53;2.93;;;;;;;27.19;36.69;96222.56;5055187;28;20488;-61
2021/09/19 11:28:50;;;;;;;10.43;3.60;;;;;;;27.19;38.32;96208.31;5055102;28;20032;-59
2021/09/19 11:31:18;;;;;;;6.03;2.80;;;;;;;27.04;37.29;96218.91;5055076;28;20029;-57
2021/09/19 11:33:44;;;;;;;4.00;3.55;;;;;;;26.69;37.24;96205.66;5051598;28;20077;-61